NKS578 KDTW-KFLL
Flight info
| Callsign | NKS578 |
|---|---|
| Flight time | 2h 32m |
| Altitude | 36000 |
| Route | CLVIN3 STAZE VXV THRSR/N0458F370 Q79 ZPLEN TEEKY4 |
| Aircraft | A321/M-SDE3FGHIRWY/LB1 |
Departure
| Time | 2026-05-06 18:51 |
|---|---|
| Airport | Detroit Metropolitan Wayne County Airport (KDTW) |
Arrival
| Time | 2026-05-06 21:23 |
|---|---|
| Airport | Fort Lauderdale Hollywood International Airport (KFLL) |
| Time | Latitude | Longitude | Altitude | Speed | Heading |
|---|---|---|---|---|---|
| 2026-05-06 18:33 | 42.22520 | -83.34965 | 646 ft | 0 kts | 109° |
| 2026-05-06 18:41 | 42.22521 | -83.34971 | 646 ft | 3 kts | 109° |
| 2026-05-06 18:41 | 42.22530 | -83.35005 | 648 ft | 4 kts | 108° |
| 2026-05-06 18:41 | 42.22537 | -83.35030 | 649 ft | 4 kts | 141° |
| 2026-05-06 18:41 | 42.22555 | -83.35033 | 649 ft | 3 kts | 208° |
| 2026-05-06 18:42 | 42.22575 | -83.35018 | 647 ft | 1 kts | 208° |
| 2026-05-06 18:44 | 42.22546 | -83.35040 | 648 ft | 9 kts | 210° |
| 2026-05-06 18:44 | 42.22484 | -83.35087 | 646 ft | 9 kts | 209° |
| 2026-05-06 18:45 | 42.22424 | -83.35158 | 646 ft | 13 kts | 229° |
| 2026-05-06 18:45 | 42.22373 | -83.35246 | 646 ft | 12 kts | 233° |
| 2026-05-06 18:45 | 42.22316 | -83.35318 | 647 ft | 11 kts | 218° |
| 2026-05-06 18:45 | 42.22274 | -83.35359 | 647 ft | 12 kts | 212° |
| 2026-05-06 18:46 | 42.22144 | -83.35456 | 647 ft | 20 kts | 208° |
| 2026-05-06 18:46 | 42.22011 | -83.35555 | 646 ft | 23 kts | 209° |
| 2026-05-06 18:46 | 42.21869 | -83.35660 | 646 ft | 24 kts | 207° |
| 2026-05-06 18:46 | 42.21727 | -83.35757 | 645 ft | 22 kts | 207° |
| 2026-05-06 18:47 | 42.21592 | -83.35852 | 646 ft | 22 kts | 207° |
| 2026-05-06 18:47 | 42.21478 | -83.35934 | 646 ft | 11 kts | 209° |
| 2026-05-06 18:47 | 42.21405 | -83.35988 | 646 ft | 13 kts | 209° |
| 2026-05-06 18:47 | 42.21322 | -83.36051 | 646 ft | 14 kts | 211° |
| 2026-05-06 18:48 | 42.21312 | -83.36155 | 646 ft | 11 kts | 252° |
| 2026-05-06 18:48 | 42.21244 | -83.36215 | 646 ft | 13 kts | 206° |
| 2026-05-06 18:48 | 42.21161 | -83.36275 | 645 ft | 14 kts | 210° |
| 2026-05-06 18:48 | 42.21069 | -83.36345 | 645 ft | 16 kts | 209° |
| 2026-05-06 18:49 | 42.20969 | -83.36419 | 645 ft | 17 kts | 208° |
| 2026-05-06 18:49 | 42.20861 | -83.36499 | 645 ft | 18 kts | 209° |
| 2026-05-06 18:49 | 42.20749 | -83.36580 | 648 ft | 19 kts | 208° |
| 2026-05-06 18:49 | 42.20633 | -83.36666 | 648 ft | 19 kts | 209° |
| 2026-05-06 18:50 | 42.20512 | -83.36755 | 647 ft | 20 kts | 208° |
| 2026-05-06 18:50 | 42.20390 | -83.36847 | 648 ft | 19 kts | 210° |
| 2026-05-06 18:50 | 42.20330 | -83.36912 | 646 ft | 8 kts | 263° |
| 2026-05-06 18:50 | 42.20362 | -83.36998 | 646 ft | 11 kts | 319° |
| 2026-05-06 18:51 | 42.20470 | -83.36954 | 646 ft | 36 kts | 28° |
| 2026-05-06 18:51 | 42.20920 | -83.36623 | 645 ft | 109 kts | 28° |
| 2026-05-06 18:51 | 42.21771 | -83.36001 | 650 ft | 166 kts | 29° |
| 2026-05-06 18:51 | 42.22799 | -83.35240 | 1274 ft | 167 kts | 26° |
| 2026-05-06 18:52 | 42.23829 | -83.34494 | 2042 ft | 170 kts | 21° |
| 2026-05-06 18:52 | 42.25021 | -83.34210 | 2404 ft | 183 kts | 346° |
| 2026-05-06 18:52 | 42.26193 | -83.34952 | 2815 ft | 195 kts | 317° |
| 2026-05-06 18:52 | 42.26758 | -83.35928 | 3013 ft | 208 kts | 295° |
| 2026-05-06 18:53 | 42.26911 | -83.37893 | 3621 ft | 219 kts | 256° |
| 2026-05-06 18:53 | 42.26107 | -83.39668 | 4330 ft | 237 kts | 220° |
| 2026-05-06 18:53 | 42.23926 | -83.40703 | 5094 ft | 266 kts | 187° |
| 2026-05-06 18:53 | 42.22667 | -83.40798 | 5643 ft | 271 kts | 183° |
| 2026-05-06 18:54 | 42.20766 | -83.40751 | 6516 ft | 275 kts | 180° |
| 2026-05-06 18:54 | 42.18844 | -83.40642 | 7342 ft | 278 kts | 181° |
| 2026-05-06 18:54 | 42.16903 | -83.40549 | 8171 ft | 280 kts | 182° |
| 2026-05-06 18:54 | 42.14944 | -83.40495 | 9015 ft | 282 kts | 184° |
| 2026-05-06 18:55 | 42.12978 | -83.40477 | 9851 ft | 284 kts | 185° |
| 2026-05-06 18:55 | 42.10967 | -83.40489 | 10332 ft | 298 kts | 186° |
| 2026-05-06 18:55 | 42.08811 | -83.40529 | 10515 ft | 321 kts | 186° |
| 2026-05-06 18:55 | 42.06530 | -83.40582 | 10653 ft | 344 kts | 186° |
| 2026-05-06 18:56 | 42.04070 | -83.40638 | 10882 ft | 362 kts | 186° |
| 2026-05-06 18:56 | 42.01530 | -83.40685 | 11479 ft | 367 kts | 186° |
| 2026-05-06 18:56 | 41.98969 | -83.40720 | 12181 ft | 369 kts | 186° |
| 2026-05-06 18:56 | 41.96388 | -83.40753 | 12921 ft | 371 kts | 186° |
| 2026-05-06 18:57 | 41.93800 | -83.40790 | 13661 ft | 374 kts | 186° |
| 2026-05-06 18:57 | 41.91187 | -83.40833 | 14296 ft | 376 kts | 186° |
| 2026-05-06 18:57 | 41.88563 | -83.40879 | 14944 ft | 378 kts | 187° |
| 2026-05-06 18:57 | 41.85924 | -83.40927 | 15604 ft | 379 kts | 187° |
| 2026-05-06 18:58 | 41.83280 | -83.40973 | 16262 ft | 381 kts | 187° |
| 2026-05-06 18:58 | 41.80622 | -83.41020 | 16904 ft | 383 kts | 187° |
| 2026-05-06 18:58 | 41.77957 | -83.41067 | 17548 ft | 384 kts | 187° |
| 2026-05-06 18:58 | 41.75281 | -83.41114 | 18181 ft | 386 kts | 188° |
| 2026-05-06 18:59 | 41.72598 | -83.41185 | 18692 ft | 386 kts | 190° |
| 2026-05-06 18:59 | 41.69954 | -83.41706 | 19154 ft | 381 kts | 200° |
| 2026-05-06 18:59 | 41.67437 | -83.42768 | 19621 ft | 380 kts | 205° |
| 2026-05-06 18:59 | 41.64930 | -83.43920 | 20103 ft | 382 kts | 205° |
| 2026-05-06 19:00 | 41.62403 | -83.45070 | 20577 ft | 385 kts | 206° |
| 2026-05-06 19:00 | 41.59859 | -83.46220 | 21043 ft | 387 kts | 206° |
| 2026-05-06 19:00 | 41.57296 | -83.47371 | 21479 ft | 390 kts | 207° |
| 2026-05-06 19:00 | 41.54752 | -83.48516 | 21952 ft | 392 kts | 207° |
| 2026-05-06 19:01 | 41.52160 | -83.49683 | 22431 ft | 394 kts | 207° |
| 2026-05-06 19:01 | 41.49556 | -83.50856 | 22875 ft | 397 kts | 207° |
| 2026-05-06 19:01 | 41.46932 | -83.52038 | 23338 ft | 399 kts | 208° |
| 2026-05-06 19:01 | 41.44299 | -83.53224 | 23751 ft | 401 kts | 208° |
| 2026-05-06 19:02 | 41.41650 | -83.54415 | 24143 ft | 403 kts | 208° |
| 2026-05-06 19:02 | 41.38992 | -83.55609 | 24507 ft | 405 kts | 208° |
| 2026-05-06 19:02 | 41.36324 | -83.56804 | 24892 ft | 404 kts | 210° |
| 2026-05-06 19:02 | 41.33666 | -83.57991 | 25388 ft | 402 kts | 210° |
| 2026-05-06 19:03 | 41.31014 | -83.59179 | 25798 ft | 402 kts | 210° |
| 2026-05-06 19:03 | 41.28357 | -83.60373 | 26191 ft | 404 kts | 210° |
| 2026-05-06 19:03 | 41.25695 | -83.61567 | 26561 ft | 405 kts | 211° |
| 2026-05-06 19:03 | 41.23020 | -83.62767 | 26923 ft | 406 kts | 211° |
| 2026-05-06 19:04 | 41.20355 | -83.63957 | 27434 ft | 403 kts | 211° |
| 2026-05-06 19:04 | 41.17704 | -83.65136 | 27976 ft | 400 kts | 211° |
| 2026-05-06 19:04 | 41.15072 | -83.66307 | 28473 ft | 397 kts | 212° |
| 2026-05-06 19:04 | 41.12467 | -83.67468 | 29000 ft | 394 kts | 212° |
| 2026-05-06 19:05 | 41.09873 | -83.68621 | 29529 ft | 392 kts | 212° |
| 2026-05-06 19:05 | 41.07299 | -83.69763 | 30046 ft | 389 kts | 213° |
| 2026-05-06 19:05 | 41.04771 | -83.70883 | 30465 ft | 387 kts | 213° |
| 2026-05-06 19:05 | 41.02221 | -83.72015 | 30866 ft | 385 kts | 213° |
| 2026-05-06 19:06 | 40.99686 | -83.73146 | 31252 ft | 384 kts | 213° |
| 2026-05-06 19:06 | 40.97159 | -83.74268 | 31638 ft | 383 kts | 214° |
| 2026-05-06 19:06 | 40.94634 | -83.75388 | 31932 ft | 382 kts | 214° |
| 2026-05-06 19:06 | 40.92115 | -83.76506 | 32300 ft | 381 kts | 214° |
| 2026-05-06 19:07 | 40.89602 | -83.77618 | 32678 ft | 380 kts | 214° |
| 2026-05-06 19:07 | 40.87098 | -83.78724 | 33051 ft | 379 kts | 214° |
| 2026-05-06 19:07 | 40.84598 | -83.79827 | 33427 ft | 378 kts | 214° |
| 2026-05-06 19:07 | 40.82104 | -83.80929 | 33805 ft | 377 kts | 215° |
| 2026-05-06 19:08 | 40.79622 | -83.82026 | 34145 ft | 376 kts | 215° |
| 2026-05-06 19:08 | 40.77143 | -83.83120 | 34450 ft | 375 kts | 215° |
| 2026-05-06 19:08 | 40.74669 | -83.84214 | 34710 ft | 375 kts | 215° |
| 2026-05-06 19:08 | 40.72191 | -83.85309 | 34949 ft | 376 kts | 215° |
| 2026-05-06 19:09 | 40.69710 | -83.86403 | 35223 ft | 376 kts | 215° |
| 2026-05-06 19:09 | 40.67231 | -83.87494 | 35502 ft | 376 kts | 215° |
| 2026-05-06 19:09 | 40.64748 | -83.88584 | 35774 ft | 376 kts | 215° |
| 2026-05-06 19:09 | 40.62262 | -83.89676 | 35959 ft | 377 kts | 215° |
| 2026-05-06 19:10 | 40.59799 | -83.90762 | 36008 ft | 380 kts | 215° |
| 2026-05-06 19:10 | 40.54777 | -83.92968 | 36007 ft | 380 kts | 215° |
| 2026-05-06 19:11 | 40.49752 | -83.95160 | 36005 ft | 381 kts | 214° |
| 2026-05-06 19:11 | 40.44726 | -83.97351 | 36007 ft | 381 kts | 214° |
| 2026-05-06 19:12 | 40.39700 | -83.99540 | 36005 ft | 381 kts | 214° |
| 2026-05-06 19:12 | 40.34671 | -84.01728 | 36006 ft | 381 kts | 214° |
| 2026-05-06 19:13 | 40.29616 | -84.03878 | 35979 ft | 388 kts | 211° |
| 2026-05-06 19:13 | 40.26875 | -84.04475 | 35989 ft | 412 kts | 201° |
| 2026-05-06 19:13 | 40.24002 | -84.04699 | 35997 ft | 414 kts | 201° |
| 2026-05-06 19:14 | 40.18245 | -84.05131 | 36010 ft | 414 kts | 201° |
| 2026-05-06 19:14 | 40.12486 | -84.05567 | 36015 ft | 415 kts | 201° |
| 2026-05-06 19:15 | 40.06727 | -84.06008 | 35991 ft | 415 kts | 201° |
| 2026-05-06 19:15 | 40.01005 | -84.06455 | 36017 ft | 414 kts | 201° |
| 2026-05-06 19:16 | 39.95253 | -84.06910 | 36021 ft | 414 kts | 201° |
| 2026-05-06 19:16 | 39.89498 | -84.07362 | 36018 ft | 414 kts | 201° |
| 2026-05-06 19:17 | 39.83741 | -84.07801 | 35969 ft | 414 kts | 201° |
| 2026-05-06 19:17 | 39.77993 | -84.08245 | 35992 ft | 414 kts | 201° |
| 2026-05-06 19:18 | 39.72243 | -84.08693 | 35995 ft | 414 kts | 201° |
| 2026-05-06 19:18 | 39.66498 | -84.09141 | 36001 ft | 414 kts | 201° |
| 2026-05-06 19:19 | 39.60749 | -84.09587 | 35988 ft | 414 kts | 201° |
| 2026-05-06 19:19 | 39.55004 | -84.10024 | 36004 ft | 414 kts | 201° |
| 2026-05-06 19:20 | 39.49259 | -84.10460 | 36010 ft | 414 kts | 201° |
| 2026-05-06 19:20 | 39.43513 | -84.10895 | 36011 ft | 413 kts | 201° |
| 2026-05-06 19:21 | 39.37774 | -84.11334 | 35979 ft | 413 kts | 201° |
| 2026-05-06 19:21 | 39.32076 | -84.11782 | 36001 ft | 413 kts | 201° |
| 2026-05-06 19:22 | 39.26332 | -84.12221 | 36012 ft | 414 kts | 201° |
| 2026-05-06 19:22 | 39.20584 | -84.12653 | 36015 ft | 414 kts | 201° |
| 2026-05-06 19:23 | 39.14830 | -84.13088 | 35990 ft | 414 kts | 201° |
| 2026-05-06 19:23 | 39.09078 | -84.13523 | 36006 ft | 414 kts | 201° |
| 2026-05-06 19:24 | 39.03331 | -84.13969 | 36009 ft | 414 kts | 201° |
| 2026-05-06 19:24 | 38.97583 | -84.14409 | 35977 ft | 414 kts | 201° |
| 2026-05-06 19:25 | 38.91770 | -84.14552 | 35973 ft | 430 kts | 194° |
| 2026-05-06 19:25 | 38.85794 | -84.14035 | 35995 ft | 431 kts | 194° |
| 2026-05-06 19:25 | 38.82808 | -84.13769 | 36279 ft | 429 kts | 194° |
| 2026-05-06 19:26 | 38.79830 | -84.13502 | 36586 ft | 428 kts | 194° |
| 2026-05-06 19:26 | 38.76857 | -84.13238 | 36843 ft | 428 kts | 194° |
| 2026-05-06 19:26 | 38.73886 | -84.12979 | 37027 ft | 428 kts | 194° |
| 2026-05-06 19:26 | 38.70911 | -84.12723 | 37239 ft | 429 kts | 194° |
| 2026-05-06 19:27 | 38.67977 | -84.12470 | 37448 ft | 429 kts | 194° |
| 2026-05-06 19:27 | 38.64997 | -84.12213 | 37659 ft | 429 kts | 194° |
| 2026-05-06 19:27 | 38.62018 | -84.11956 | 37864 ft | 429 kts | 194° |
| 2026-05-06 19:27 | 38.59035 | -84.11702 | 37977 ft | 430 kts | 194° |
| 2026-05-06 19:28 | 38.56045 | -84.11447 | 37989 ft | 430 kts | 194° |
| 2026-05-06 19:28 | 38.50068 | -84.10935 | 37919 ft | 431 kts | 194° |
| 2026-05-06 19:29 | 38.44078 | -84.10420 | 37985 ft | 432 kts | 194° |
| 2026-05-06 19:29 | 38.38079 | -84.09906 | 37984 ft | 432 kts | 194° |
| 2026-05-06 19:30 | 38.32079 | -84.09398 | 37992 ft | 432 kts | 194° |
| 2026-05-06 19:30 | 38.26076 | -84.08889 | 38007 ft | 433 kts | 194° |
| 2026-05-06 19:31 | 38.20102 | -84.08379 | 38024 ft | 433 kts | 194° |
| 2026-05-06 19:31 | 38.11078 | -84.07615 | 38036 ft | 434 kts | 194° |
| 2026-05-06 19:32 | 38.05051 | -84.07109 | 38039 ft | 434 kts | 194° |
| 2026-05-06 19:32 | 37.99026 | -84.06604 | 37999 ft | 434 kts | 193° |
| 2026-05-06 19:33 | 37.92996 | -84.06092 | 37977 ft | 435 kts | 193° |
| 2026-05-06 19:33 | 37.86956 | -84.05580 | 37991 ft | 435 kts | 193° |
| 2026-05-06 19:34 | 37.80920 | -84.05070 | 37996 ft | 435 kts | 194° |
| 2026-05-06 19:34 | 37.74924 | -84.04564 | 37959 ft | 435 kts | 193° |
| 2026-05-06 19:35 | 37.68890 | -84.04055 | 37988 ft | 435 kts | 193° |
| 2026-05-06 19:35 | 37.62856 | -84.03557 | 37996 ft | 435 kts | 193° |
| 2026-05-06 19:36 | 37.56819 | -84.03056 | 37997 ft | 435 kts | 193° |
| 2026-05-06 19:36 | 37.50787 | -84.02554 | 37975 ft | 434 kts | 193° |
| 2026-05-06 19:37 | 37.44760 | -84.02052 | 37980 ft | 434 kts | 193° |
| 2026-05-06 19:37 | 37.39755 | -84.01634 | 37978 ft | 434 kts | 193° |
| 2026-05-06 19:38 | 37.32719 | -84.01049 | 37970 ft | 433 kts | 193° |
| 2026-05-06 19:38 | 37.26703 | -84.00550 | 37939 ft | 433 kts | 193° |
| 2026-05-06 19:39 | 37.20724 | -84.00058 | 38002 ft | 434 kts | 193° |
| 2026-05-06 19:39 | 37.14704 | -83.99564 | 38020 ft | 434 kts | 193° |
| 2026-05-06 19:40 | 37.08687 | -83.99070 | 38021 ft | 433 kts | 193° |
| 2026-05-06 19:40 | 37.02669 | -83.98565 | 37996 ft | 433 kts | 193° |
| 2026-05-06 19:41 | 36.96650 | -83.98067 | 38000 ft | 433 kts | 193° |
| 2026-05-06 19:41 | 36.90633 | -83.97579 | 37992 ft | 433 kts | 193° |
| 2026-05-06 19:42 | 36.84611 | -83.97089 | 37997 ft | 433 kts | 193° |
| 2026-05-06 19:42 | 36.78593 | -83.96591 | 37956 ft | 433 kts | 193° |
| 2026-05-06 19:43 | 36.72619 | -83.96104 | 37970 ft | 433 kts | 193° |
| 2026-05-06 19:43 | 36.66593 | -83.95619 | 37976 ft | 434 kts | 193° |
| 2026-05-06 19:44 | 36.60571 | -83.95134 | 37962 ft | 434 kts | 193° |
| 2026-05-06 19:44 | 36.54539 | -83.94642 | 37917 ft | 434 kts | 193° |
| 2026-05-06 19:45 | 36.48497 | -83.94141 | 37940 ft | 435 kts | 193° |
| 2026-05-06 19:45 | 36.42457 | -83.93653 | 37950 ft | 435 kts | 193° |
| 2026-05-06 19:46 | 36.36417 | -83.93166 | 37956 ft | 435 kts | 193° |
| 2026-05-06 19:46 | 36.30372 | -83.92677 | 37913 ft | 435 kts | 192° |
| 2026-05-06 19:47 | 36.24326 | -83.92196 | 37924 ft | 436 kts | 192° |
| 2026-05-06 19:47 | 36.18266 | -83.91707 | 37954 ft | 436 kts | 192° |
| 2026-05-06 19:48 | 36.12248 | -83.91223 | 37980 ft | 437 kts | 192° |
| 2026-05-06 19:48 | 36.06159 | -83.90733 | 37992 ft | 440 kts | 192° |
| 2026-05-06 19:49 | 36.00039 | -83.90239 | 37990 ft | 441 kts | 192° |
| 2026-05-06 19:49 | 35.93910 | -83.89749 | 37990 ft | 441 kts | 192° |
| 2026-05-06 19:50 | 35.90876 | -83.89654 | 37989 ft | 428 kts | 199° |
| 2026-05-06 19:50 | 35.87976 | -83.90058 | 37991 ft | 412 kts | 206° |
| 2026-05-06 19:50 | 35.82381 | -83.91428 | 37994 ft | 411 kts | 206° |
| 2026-05-06 19:51 | 35.76766 | -83.92810 | 38004 ft | 411 kts | 206° |
| 2026-05-06 19:51 | 35.71193 | -83.94171 | 38006 ft | 411 kts | 206° |
| 2026-05-06 19:52 | 35.65590 | -83.95529 | 37999 ft | 410 kts | 206° |
| 2026-05-06 19:52 | 35.59984 | -83.96890 | 37936 ft | 410 kts | 206° |
| 2026-05-06 19:53 | 35.54371 | -83.98256 | 37950 ft | 412 kts | 206° |
| 2026-05-06 19:53 | 35.48751 | -83.99617 | 37973 ft | 413 kts | 205° |
| 2026-05-06 19:54 | 35.44072 | -84.00741 | 37990 ft | 412 kts | 206° |
| 2026-05-06 19:54 | 35.38448 | -84.02091 | 38032 ft | 412 kts | 206° |
| 2026-05-06 19:55 | 35.32814 | -84.03455 | 38000 ft | 413 kts | 206° |
| 2026-05-06 19:55 | 35.27172 | -84.04823 | 38027 ft | 413 kts | 206° |
| 2026-05-06 19:56 | 35.21525 | -84.06181 | 38042 ft | 414 kts | 206° |
| 2026-05-06 19:56 | 35.15882 | -84.07524 | 38038 ft | 414 kts | 206° |
| 2026-05-06 19:57 | 35.10223 | -84.08869 | 37986 ft | 414 kts | 206° |
| 2026-05-06 19:57 | 35.04578 | -84.10222 | 38024 ft | 413 kts | 206° |
| 2026-05-06 19:58 | 34.98933 | -84.11578 | 38048 ft | 413 kts | 206° |
| 2026-05-06 19:58 | 34.93286 | -84.12924 | 38061 ft | 413 kts | 206° |
| 2026-05-06 19:59 | 34.87640 | -84.14261 | 38068 ft | 414 kts | 206° |
| 2026-05-06 19:59 | 34.82028 | -84.15598 | 38019 ft | 414 kts | 205° |
| 2026-05-06 20:00 | 34.76360 | -84.16957 | 38016 ft | 416 kts | 205° |
| 2026-05-06 20:00 | 34.70670 | -84.18305 | 38015 ft | 417 kts | 204° |
| 2026-05-06 20:01 | 34.64958 | -84.19648 | 38023 ft | 418 kts | 205° |
| 2026-05-06 20:01 | 34.59244 | -84.20999 | 37987 ft | 419 kts | 204° |
| 2026-05-06 20:02 | 34.53512 | -84.22358 | 37975 ft | 420 kts | 204° |
| 2026-05-06 20:02 | 34.47757 | -84.23722 | 37979 ft | 422 kts | 204° |
| 2026-05-06 20:03 | 34.41984 | -84.25082 | 37991 ft | 423 kts | 204° |
| 2026-05-06 20:03 | 34.36231 | -84.26435 | 38004 ft | 424 kts | 204° |
| 2026-05-06 20:04 | 34.30430 | -84.27796 | 37972 ft | 426 kts | 204° |
| 2026-05-06 20:04 | 34.24591 | -84.29160 | 37976 ft | 429 kts | 204° |
| 2026-05-06 20:05 | 34.18728 | -84.30528 | 38009 ft | 429 kts | 204° |
| 2026-05-06 20:05 | 34.12874 | -84.31896 | 38024 ft | 428 kts | 204° |
| 2026-05-06 20:06 | 34.07027 | -84.33268 | 37988 ft | 428 kts | 204° |
| 2026-05-06 20:06 | 34.01177 | -84.34642 | 38004 ft | 429 kts | 204° |
| 2026-05-06 20:07 | 33.95309 | -84.36007 | 38021 ft | 430 kts | 204° |
| 2026-05-06 20:07 | 33.89435 | -84.37373 | 38026 ft | 430 kts | 204° |
| 2026-05-06 20:08 | 33.83563 | -84.38734 | 38034 ft | 430 kts | 204° |
| 2026-05-06 20:08 | 33.77716 | -84.40094 | 38020 ft | 431 kts | 204° |
| 2026-05-06 20:09 | 33.71826 | -84.41449 | 38038 ft | 432 kts | 204° |
| 2026-05-06 20:09 | 33.65892 | -84.42716 | 38040 ft | 441 kts | 198° |
| 2026-05-06 20:10 | 33.62765 | -84.42776 | 38043 ft | 459 kts | 188° |
| 2026-05-06 20:10 | 33.59552 | -84.42146 | 38043 ft | 478 kts | 177° |
| 2026-05-06 20:10 | 33.53142 | -84.39590 | 38012 ft | 488 kts | 173° |
| 2026-05-06 20:11 | 33.46709 | -84.36986 | 38053 ft | 488 kts | 173° |
| 2026-05-06 20:11 | 33.40262 | -84.34411 | 38059 ft | 489 kts | 173° |
| 2026-05-06 20:12 | 33.33808 | -84.31835 | 38073 ft | 489 kts | 173° |
| 2026-05-06 20:12 | 33.27347 | -84.29245 | 38079 ft | 490 kts | 173° |
| 2026-05-06 20:13 | 33.20877 | -84.26662 | 38062 ft | 490 kts | 173° |
| 2026-05-06 20:13 | 33.14444 | -84.24104 | 38057 ft | 491 kts | 173° |
| 2026-05-06 20:14 | 33.07954 | -84.21530 | 38049 ft | 491 kts | 173° |
| 2026-05-06 20:14 | 33.01464 | -84.18949 | 38033 ft | 492 kts | 173° |
| 2026-05-06 20:15 | 32.94975 | -84.16373 | 38064 ft | 492 kts | 173° |
| 2026-05-06 20:15 | 32.88481 | -84.13807 | 38065 ft | 492 kts | 173° |
| 2026-05-06 20:16 | 32.81976 | -84.11238 | 38059 ft | 493 kts | 173° |
| 2026-05-06 20:16 | 32.75470 | -84.08661 | 38053 ft | 493 kts | 173° |
| 2026-05-06 20:17 | 32.68968 | -84.06102 | 38012 ft | 492 kts | 173° |
| 2026-05-06 20:17 | 32.62463 | -84.03541 | 38037 ft | 493 kts | 173° |
| 2026-05-06 20:18 | 32.55948 | -84.00978 | 38049 ft | 493 kts | 173° |
| 2026-05-06 20:18 | 32.49427 | -83.98429 | 38068 ft | 494 kts | 173° |
| 2026-05-06 20:19 | 32.42952 | -83.95893 | 38046 ft | 493 kts | 173° |
| 2026-05-06 20:19 | 32.36432 | -83.93345 | 38071 ft | 493 kts | 173° |
| 2026-05-06 20:20 | 32.29912 | -83.90805 | 38059 ft | 493 kts | 173° |
| 2026-05-06 20:20 | 32.23393 | -83.88262 | 38055 ft | 494 kts | 173° |
| 2026-05-06 20:21 | 32.16864 | -83.85717 | 38028 ft | 493 kts | 172° |
| 2026-05-06 20:21 | 32.10346 | -83.83185 | 38059 ft | 493 kts | 172° |
| 2026-05-06 20:22 | 32.03841 | -83.80664 | 38064 ft | 492 kts | 172° |
| 2026-05-06 20:22 | 31.97337 | -83.78141 | 38067 ft | 492 kts | 172° |
| 2026-05-06 20:23 | 31.90837 | -83.75623 | 38049 ft | 491 kts | 172° |
| 2026-05-06 20:23 | 31.84394 | -83.73139 | 38065 ft | 490 kts | 172° |
| 2026-05-06 20:24 | 31.77914 | -83.70634 | 38075 ft | 490 kts | 172° |
| 2026-05-06 20:24 | 31.71438 | -83.68140 | 38076 ft | 490 kts | 172° |
| 2026-05-06 20:25 | 31.64964 | -83.65653 | 38080 ft | 489 kts | 172° |
| 2026-05-06 20:25 | 31.58497 | -83.63169 | 38064 ft | 489 kts | 172° |
| 2026-05-06 20:26 | 31.52037 | -83.60687 | 38078 ft | 488 kts | 172° |
| 2026-05-06 20:26 | 31.45582 | -83.58209 | 38085 ft | 488 kts | 172° |
| 2026-05-06 20:27 | 31.39131 | -83.55744 | 38087 ft | 488 kts | 172° |
| 2026-05-06 20:27 | 31.32679 | -83.53285 | 38055 ft | 487 kts | 172° |
| 2026-05-06 20:28 | 31.26272 | -83.50855 | 38066 ft | 487 kts | 172° |
| 2026-05-06 20:28 | 31.19822 | -83.48402 | 38068 ft | 488 kts | 171° |
| 2026-05-06 20:29 | 31.13369 | -83.45946 | 38077 ft | 488 kts | 171° |
| 2026-05-06 20:29 | 31.06916 | -83.43489 | 38038 ft | 488 kts | 171° |
| 2026-05-06 20:30 | 30.97236 | -83.39811 | 38062 ft | 488 kts | 171° |
| 2026-05-06 20:31 | 30.90780 | -83.37376 | 38079 ft | 487 kts | 171° |
| 2026-05-06 20:31 | 30.84330 | -83.34945 | 38080 ft | 487 kts | 171° |
| 2026-05-06 20:32 | 30.77877 | -83.32513 | 38051 ft | 487 kts | 171° |
| 2026-05-06 20:32 | 30.71438 | -83.30057 | 38060 ft | 490 kts | 167° |
| 2026-05-06 20:33 | 30.65157 | -83.26768 | 38073 ft | 496 kts | 163° |
| 2026-05-06 20:33 | 30.58939 | -83.23405 | 38083 ft | 496 kts | 163° |
| 2026-05-06 20:34 | 30.52683 | -83.20039 | 38085 ft | 496 kts | 163° |
| 2026-05-06 20:34 | 30.46417 | -83.16678 | 38089 ft | 496 kts | 163° |
| 2026-05-06 20:35 | 30.40155 | -83.13326 | 38089 ft | 496 kts | 163° |
| 2026-05-06 20:35 | 30.33877 | -83.09964 | 38085 ft | 497 kts | 163° |
| 2026-05-06 20:36 | 30.27600 | -83.06603 | 38086 ft | 497 kts | 163° |
| 2026-05-06 20:36 | 30.21314 | -83.03252 | 38062 ft | 498 kts | 163° |
| 2026-05-06 20:37 | 30.15024 | -82.99899 | 38069 ft | 498 kts | 163° |
| 2026-05-06 20:37 | 30.08732 | -82.96549 | 38076 ft | 498 kts | 163° |
| 2026-05-06 20:38 | 30.02437 | -82.93203 | 38086 ft | 498 kts | 163° |
| 2026-05-06 20:38 | 29.96140 | -82.89852 | 38091 ft | 499 kts | 163° |
| 2026-05-06 20:39 | 29.89839 | -82.86508 | 38065 ft | 498 kts | 162° |
| 2026-05-06 20:39 | 29.83578 | -82.83188 | 38082 ft | 499 kts | 162° |
| 2026-05-06 20:40 | 29.77272 | -82.79858 | 38092 ft | 498 kts | 162° |
| 2026-05-06 20:40 | 29.70962 | -82.76536 | 38097 ft | 499 kts | 162° |
| 2026-05-06 20:41 | 29.64653 | -82.73208 | 38093 ft | 499 kts | 162° |
| 2026-05-06 20:41 | 29.58338 | -82.69870 | 38069 ft | 500 kts | 162° |
| 2026-05-06 20:42 | 29.52011 | -82.66545 | 38072 ft | 500 kts | 162° |
| 2026-05-06 20:42 | 29.45684 | -82.63231 | 38078 ft | 500 kts | 162° |
| 2026-05-06 20:43 | 29.39355 | -82.59914 | 38080 ft | 500 kts | 162° |
| 2026-05-06 20:43 | 29.33029 | -82.56594 | 38070 ft | 500 kts | 162° |
| 2026-05-06 20:44 | 29.26618 | -82.53651 | 38074 ft | 490 kts | 173° |
| 2026-05-06 20:44 | 29.19991 | -82.52702 | 38082 ft | 473 kts | 188° |
| 2026-05-06 20:45 | 29.13412 | -82.52728 | 38086 ft | 473 kts | 188° |
| 2026-05-06 20:45 | 29.06865 | -82.52725 | 38095 ft | 474 kts | 188° |
| 2026-05-06 20:46 | 29.00273 | -82.52718 | 38089 ft | 474 kts | 187° |
| 2026-05-06 20:46 | 28.93669 | -82.52712 | 38101 ft | 475 kts | 187° |
| 2026-05-06 20:47 | 28.87058 | -82.52707 | 38107 ft | 475 kts | 187° |
| 2026-05-06 20:47 | 28.80445 | -82.52702 | 38084 ft | 476 kts | 187° |
| 2026-05-06 20:48 | 28.73826 | -82.52698 | 38058 ft | 475 kts | 187° |
| 2026-05-06 20:48 | 28.67212 | -82.52698 | 38068 ft | 475 kts | 187° |
| 2026-05-06 20:49 | 28.60591 | -82.52694 | 38074 ft | 476 kts | 187° |
| 2026-05-06 20:49 | 28.53976 | -82.52686 | 38074 ft | 476 kts | 187° |
| 2026-05-06 20:50 | 28.47399 | -82.52680 | 38077 ft | 476 kts | 187° |
| 2026-05-06 20:50 | 28.40783 | -82.52680 | 38063 ft | 476 kts | 187° |
| 2026-05-06 20:51 | 28.34156 | -82.52679 | 38070 ft | 476 kts | 187° |
| 2026-05-06 20:51 | 28.28645 | -82.52677 | 38075 ft | 477 kts | 187° |
| 2026-05-06 20:52 | 28.22007 | -82.52668 | 38081 ft | 477 kts | 187° |
| 2026-05-06 20:52 | 28.15379 | -82.52666 | 38062 ft | 477 kts | 186° |
| 2026-05-06 20:53 | 28.08738 | -82.52663 | 38084 ft | 477 kts | 186° |
| 2026-05-06 20:53 | 28.02097 | -82.52625 | 38086 ft | 480 kts | 182° |
| 2026-05-06 20:54 | 27.95475 | -82.51102 | 38089 ft | 492 kts | 168° |
| 2026-05-06 20:54 | 27.88941 | -82.48756 | 38071 ft | 493 kts | 168° |
| 2026-05-06 20:55 | 27.82406 | -82.46436 | 38063 ft | 492 kts | 168° |
| 2026-05-06 20:55 | 27.75908 | -82.44147 | 38076 ft | 492 kts | 168° |
| 2026-05-06 20:56 | 27.69374 | -82.41837 | 38084 ft | 492 kts | 168° |
| 2026-05-06 20:56 | 27.62839 | -82.39517 | 38088 ft | 492 kts | 168° |
| 2026-05-06 20:57 | 27.56302 | -82.37205 | 38082 ft | 492 kts | 168° |
| 2026-05-06 20:57 | 27.49762 | -82.34910 | 38078 ft | 492 kts | 168° |
| 2026-05-06 20:58 | 27.43224 | -82.32607 | 38081 ft | 492 kts | 168° |
| 2026-05-06 20:58 | 27.36750 | -82.30012 | 38079 ft | 499 kts | 158° |
| 2026-05-06 20:59 | 27.30665 | -82.26188 | 38085 ft | 502 kts | 154° |
| 2026-05-06 20:59 | 27.24593 | -82.22307 | 38070 ft | 502 kts | 154° |
| 2026-05-06 21:00 | 27.18517 | -82.18448 | 38086 ft | 501 kts | 155° |
| 2026-05-06 21:00 | 27.12441 | -82.14613 | 38101 ft | 501 kts | 155° |
| 2026-05-06 21:01 | 27.06410 | -82.10810 | 38106 ft | 500 kts | 155° |
| 2026-05-06 21:01 | 27.00345 | -82.06983 | 38098 ft | 500 kts | 154° |
| 2026-05-06 21:02 | 26.94651 | -82.02457 | 38068 ft | 506 kts | 139° |
| 2026-05-06 21:02 | 26.92167 | -81.99643 | 37408 ft | 510 kts | 136° |
| 2026-05-06 21:02 | 26.89714 | -81.96748 | 36560 ft | 515 kts | 135° |
| 2026-05-06 21:02 | 26.87252 | -81.93824 | 35780 ft | 518 kts | 135° |
| 2026-05-06 21:03 | 26.84773 | -81.90876 | 35009 ft | 521 kts | 135° |
| 2026-05-06 21:03 | 26.82284 | -81.87920 | 34225 ft | 523 kts | 135° |
| 2026-05-06 21:03 | 26.79775 | -81.84952 | 33362 ft | 525 kts | 136° |
| 2026-05-06 21:03 | 26.77263 | -81.81991 | 32730 ft | 522 kts | 136° |
| 2026-05-06 21:04 | 26.74776 | -81.79075 | 32259 ft | 515 kts | 136° |
| 2026-05-06 21:04 | 26.72306 | -81.76198 | 31776 ft | 510 kts | 136° |
| 2026-05-06 21:04 | 26.69851 | -81.73353 | 31294 ft | 506 kts | 136° |
| 2026-05-06 21:04 | 26.67419 | -81.70537 | 30817 ft | 501 kts | 136° |
| 2026-05-06 21:05 | 26.65007 | -81.67747 | 30327 ft | 496 kts | 136° |
| 2026-05-06 21:05 | 26.62686 | -81.64915 | 29784 ft | 493 kts | 129° |
| 2026-05-06 21:05 | 26.60626 | -81.61870 | 29214 ft | 489 kts | 128° |
| 2026-05-06 21:05 | 26.58625 | -81.58886 | 28659 ft | 484 kts | 128° |
| 2026-05-06 21:06 | 26.56613 | -81.55891 | 28111 ft | 480 kts | 128° |
| 2026-05-06 21:06 | 26.54618 | -81.52926 | 27556 ft | 476 kts | 128° |
| 2026-05-06 21:06 | 26.52638 | -81.49984 | 27012 ft | 472 kts | 127° |
| 2026-05-06 21:06 | 26.50671 | -81.47066 | 26479 ft | 468 kts | 127° |
| 2026-05-06 21:07 | 26.48723 | -81.44174 | 25953 ft | 465 kts | 127° |
| 2026-05-06 21:07 | 26.46789 | -81.41306 | 25439 ft | 461 kts | 127° |
| 2026-05-06 21:07 | 26.44865 | -81.38458 | 24943 ft | 458 kts | 127° |
| 2026-05-06 21:07 | 26.42955 | -81.35631 | 24461 ft | 455 kts | 127° |
| 2026-05-06 21:08 | 26.41057 | -81.32827 | 23991 ft | 452 kts | 128° |
| 2026-05-06 21:08 | 26.39118 | -81.30080 | 23529 ft | 449 kts | 129° |
| 2026-05-06 21:08 | 26.37137 | -81.27409 | 23017 ft | 445 kts | 130° |
| 2026-05-06 21:08 | 26.35139 | -81.24785 | 22559 ft | 442 kts | 130° |
| 2026-05-06 21:09 | 26.33165 | -81.22216 | 21854 ft | 431 kts | 130° |
| 2026-05-06 21:09 | 26.31234 | -81.19697 | 20825 ft | 423 kts | 130° |
| 2026-05-06 21:09 | 26.29353 | -81.17224 | 19861 ft | 413 kts | 129° |
| 2026-05-06 21:09 | 26.27525 | -81.14804 | 18936 ft | 403 kts | 129° |
| 2026-05-06 21:10 | 26.25741 | -81.12444 | 17970 ft | 394 kts | 129° |
| 2026-05-06 21:10 | 26.24014 | -81.10167 | 16928 ft | 386 kts | 128° |
| 2026-05-06 21:10 | 26.22298 | -81.07912 | 15908 ft | 378 kts | 128° |
| 2026-05-06 21:10 | 26.20617 | -81.05706 | 14906 ft | 370 kts | 128° |
| 2026-05-06 21:11 | 26.18967 | -81.03543 | 13933 ft | 363 kts | 127° |
| 2026-05-06 21:11 | 26.17354 | -81.01428 | 12872 ft | 356 kts | 128° |
| 2026-05-06 21:11 | 26.15785 | -80.99332 | 11877 ft | 347 kts | 123° |
| 2026-05-06 21:11 | 26.14711 | -80.97068 | 11566 ft | 316 kts | 107° |
| 2026-05-06 21:12 | 26.14185 | -80.94772 | 11028 ft | 300 kts | 98° |
| 2026-05-06 21:12 | 26.13805 | -80.92512 | 10317 ft | 295 kts | 98° |
| 2026-05-06 21:12 | 26.13435 | -80.90275 | 9569 ft | 292 kts | 98° |
| 2026-05-06 21:12 | 26.13071 | -80.88071 | 8825 ft | 288 kts | 99° |
| 2026-05-06 21:13 | 26.12710 | -80.85891 | 8096 ft | 284 kts | 99° |
| 2026-05-06 21:13 | 26.12354 | -80.83745 | 7393 ft | 280 kts | 100° |
| 2026-05-06 21:13 | 26.12006 | -80.81653 | 7110 ft | 272 kts | 99° |
| 2026-05-06 21:13 | 26.11660 | -80.79571 | 6967 ft | 275 kts | 100° |
| 2026-05-06 21:14 | 26.11313 | -80.77485 | 6850 ft | 276 kts | 100° |
| 2026-05-06 21:14 | 26.10965 | -80.75397 | 6726 ft | 273 kts | 100° |
| 2026-05-06 21:14 | 26.10620 | -80.73327 | 6585 ft | 272 kts | 100° |
| 2026-05-06 21:14 | 26.10277 | -80.71263 | 6444 ft | 272 kts | 100° |
| 2026-05-06 21:15 | 26.09931 | -80.69201 | 6297 ft | 270 kts | 100° |
| 2026-05-06 21:15 | 26.09585 | -80.67148 | 6155 ft | 269 kts | 101° |
| 2026-05-06 21:15 | 26.09243 | -80.65130 | 6014 ft | 269 kts | 101° |
| 2026-05-06 21:15 | 26.08896 | -80.63087 | 5875 ft | 268 kts | 101° |
| 2026-05-06 21:16 | 26.08550 | -80.61051 | 5740 ft | 269 kts | 101° |
| 2026-05-06 21:16 | 26.08203 | -80.59014 | 5596 ft | 267 kts | 101° |
| 2026-05-06 21:16 | 26.07857 | -80.56987 | 5459 ft | 266 kts | 101° |
| 2026-05-06 21:16 | 26.07515 | -80.54972 | 5320 ft | 266 kts | 101° |
| 2026-05-06 21:17 | 26.07173 | -80.52953 | 5185 ft | 267 kts | 101° |
| 2026-05-06 21:17 | 26.06832 | -80.50899 | 4987 ft | 271 kts | 98° |
| 2026-05-06 21:17 | 26.06706 | -80.48815 | 4766 ft | 268 kts | 90° |
| 2026-05-06 21:17 | 26.06717 | -80.46765 | 4542 ft | 262 kts | 89° |
| 2026-05-06 21:18 | 26.06724 | -80.44762 | 4325 ft | 256 kts | 90° |
| 2026-05-06 21:18 | 26.06718 | -80.42800 | 4102 ft | 251 kts | 90° |
| 2026-05-06 21:18 | 26.06709 | -80.40884 | 3879 ft | 245 kts | 90° |
| 2026-05-06 21:18 | 26.06702 | -80.39009 | 3664 ft | 240 kts | 90° |
| 2026-05-06 21:19 | 26.06694 | -80.37178 | 3510 ft | 232 kts | 90° |
| 2026-05-06 21:19 | 26.06686 | -80.35420 | 3334 ft | 223 kts | 90° |
| 2026-05-06 21:19 | 26.06679 | -80.33735 | 3059 ft | 218 kts | 91° |
| 2026-05-06 21:19 | 26.06671 | -80.32068 | 2799 ft | 211 kts | 90° |
| 2026-05-06 21:20 | 26.06664 | -80.30476 | 2525 ft | 200 kts | 91° |
| 2026-05-06 21:20 | 26.06658 | -80.28973 | 2260 ft | 191 kts | 92° |
| 2026-05-06 21:20 | 26.06651 | -80.27565 | 2018 ft | 172 kts | 92° |
| 2026-05-06 21:20 | 26.06645 | -80.26302 | 1825 ft | 155 kts | 94° |
| 2026-05-06 21:21 | 26.06640 | -80.25161 | 1632 ft | 144 kts | 91° |
| 2026-05-06 21:21 | 26.06634 | -80.24059 | 1436 ft | 140 kts | 92° |
| 2026-05-06 21:21 | 26.06628 | -80.22976 | 1270 ft | 139 kts | 91° |
| 2026-05-06 21:21 | 26.06622 | -80.21915 | 1084 ft | 137 kts | 91° |
| 2026-05-06 21:22 | 26.06616 | -80.20854 | 910 ft | 137 kts | 90° |
| 2026-05-06 21:22 | 26.06612 | -80.19805 | 727 ft | 135 kts | 92° |
| 2026-05-06 21:22 | 26.06605 | -80.18741 | 549 ft | 136 kts | 91° |
| 2026-05-06 21:22 | 26.06597 | -80.17667 | 399 ft | 139 kts | 90° |
| 2026-05-06 21:23 | 26.06595 | -80.16594 | 211 ft | 139 kts | 91° |
| 2026-05-06 21:23 | 26.06589 | -80.15535 | 28 ft | 133 kts | 92° |
| 2026-05-06 21:23 | 26.06581 | -80.14675 | 32 ft | 65 kts | 90° |
| 2026-05-06 21:23 | 26.06581 | -80.14378 | 49 ft | 24 kts | 89° |
| 2026-05-06 21:24 | 26.06595 | -80.14285 | 55 ft | 9 kts | 69° |
| 2026-05-06 21:24 | 26.06633 | -80.14227 | 52 ft | 1 kts | 32° |
| 2026-05-06 21:24 | 26.06672 | -80.14252 | 46 ft | 15 kts | 297° |
| 2026-05-06 21:24 | 26.06678 | -80.14339 | 49 ft | 10 kts | 270° |
| 2026-05-06 21:25 | 26.06677 | -80.14439 | 46 ft | 18 kts | 270° |
| 2026-05-06 21:25 | 26.06676 | -80.14599 | 39 ft | 23 kts | 269° |
| 2026-05-06 21:25 | 26.06677 | -80.14758 | 29 ft | 14 kts | 271° |
| 2026-05-06 21:25 | 26.06689 | -80.14877 | 19 ft | 12 kts | 285° |
| 2026-05-06 21:26 | 26.06733 | -80.14921 | 17 ft | 11 kts | 358° |
| 2026-05-06 21:26 | 26.06766 | -80.14834 | 16 ft | 15 kts | 88° |
| 2026-05-06 21:26 | 26.06767 | -80.14710 | 16 ft | 17 kts | 90° |
| 2026-05-06 21:26 | 26.06768 | -80.14571 | 16 ft | 19 kts | 87° |
| 2026-05-06 21:27 | 26.06771 | -80.14427 | 16 ft | 17 kts | 91° |
| 2026-05-06 21:27 | 26.06780 | -80.14345 | 16 ft | 7 kts | 39° |
| 2026-05-06 21:27 | 26.06835 | -80.14341 | 16 ft | 9 kts | 0° |
| 2026-05-06 21:27 | 26.06875 | -80.14341 | 16 ft | 0 kts | 359° |